sensor_id;sensor_type;location;lat;lon;timestamp;temperature;humidity
42907;DHT22;28552;51.146;6.576;2023-02-28T00:00:54;-1.10;99.90
42907;DHT22;28552;51.146;6.576;2023-02-28T00:03:55;-1.10;99.90
42907;DHT22;28552;51.146;6.576;2023-02-28T00:06:56;-1.10;99.90
42907;DHT22;28552;51.146;6.576;2023-02-28T00:09:57;-1.10;99.90
42907;DHT22;28552;51.146;6.576;2023-02-28T00:13:02;-1.10;99.90
42907;DHT22;28552;51.146;6.576;2023-02-28T00:16:07;-1.10;99.90
42907;DHT22;28552;51.146;6.576;2023-02-28T00:19:08;-1.20;99.90
42907;DHT22;28552;51.146;6.576;2023-02-28T00:22:09;-1.20;99.90
42907;DHT22;28552;51.146;6.576;2023-02-28T00:25:12;-1.20;99.90
42907;DHT22;28552;51.146;6.576;2023-02-28T00:28:13;-1.20;99.90
42907;DHT22;28552;51.146;6.576;2023-02-28T00:31:14;-1.30;99.90
42907;DHT22;28552;51.146;6.576;2023-02-28T00:34:14;-1.30;99.90
42907;DHT22;28552;51.146;6.576;2023-02-28T00:37:15;-1.30;99.90
42907;DHT22;28552;51.146;6.576;2023-02-28T00:40:15;-1.30;99.90
42907;DHT22;28552;51.146;6.576;2023-02-28T00:43:16;-1.30;99.90
42907;DHT22;28552;51.146;6.576;2023-02-28T00:46:16;-1.30;99.90
42907;DHT22;28552;51.146;6.576;2023-02-28T00:49:17;-1.40;99.90
42907;DHT22;28552;51.146;6.576;2023-02-28T00:52:18;-1.40;99.90
42907;DHT22;28552;51.146;6.576;2023-02-28T00:55:18;-1.40;99.90
42907;DHT22;28552;51.146;6.576;2023-02-28T00:58:19;-1.50;99.90
42907;DHT22;28552;51.146;6.576;2023-02-28T01:01:20;-1.40;99.90
42907;DHT22;28552;51.146;6.576;2023-02-28T01:04:20;-1.40;99.90
42907;DHT22;28552;51.146;6.576;2023-02-28T01:07:21;-1.40;99.90
42907;DHT22;28552;51.146;6.576;2023-02-28T01:10:21;-1.40;99.90
42907;DHT22;28552;51.146;6.576;2023-02-28T01:13:22;-1.50;99.90
42907;DHT22;28552;51.146;6.576;2023-02-28T01:16:23;-1.50;99.90
42907;DHT22;28552;51.146;6.576;2023-02-28T01:19:25;-1.50;99.90
42907;DHT22;28552;51.146;6.576;2023-02-28T01:22:25;-1.40;99.90
42907;DHT22;28552;51.146;6.576;2023-02-28T01:25:26;-1.30;99.90
42907;DHT22;28552;51.146;6.576;2023-02-28T01:28:26;-1.30;99.90
42907;DHT22;28552;51.146;6.576;2023-02-28T01:31:27;-1.40;99.90
42907;DHT22;28552;51.146;6.576;2023-02-28T01:34:27;-1.40;99.90
42907;DHT22;28552;51.146;6.576;2023-02-28T01:37:28;-1.40;99.90
42907;DHT22;28552;51.146;6.576;2023-02-28T01:40:28;-1.40;99.90
42907;DHT22;28552;51.146;6.576;2023-02-28T01:43:32;-1.40;99.90
42907;DHT22;28552;51.146;6.576;2023-02-28T01:46:35;-1.30;99.90
42907;DHT22;28552;51.146;6.576;2023-02-28T01:49:36;-1.30;99.90
42907;DHT22;28552;51.146;6.576;2023-02-28T01:52:37;-1.30;99.90
42907;DHT22;28552;51.146;6.576;2023-02-28T01:55:39;-1.40;99.90
42907;DHT22;28552;51.146;6.576;2023-02-28T01:58:41;-1.40;99.90
42907;DHT22;28552;51.146;6.576;2023-02-28T02:01:42;-1.40;99.90
42907;DHT22;28552;51.146;6.576;2023-02-28T02:05:03;-1.50;99.90
42907;DHT22;28552;51.146;6.576;2023-02-28T02:08:06;-1.60;99.90
42907;DHT22;28552;51.146;6.576;2023-02-28T02:11:16;-1.60;99.90
42907;DHT22;28552;51.146;6.576;2023-02-28T02:17:52;-1.70;99.90
42907;DHT22;28552;51.146;6.576;2023-02-28T02:40:13;-1.70;99.90
42907;DHT22;28552;51.146;6.576;2023-02-28T02:43:21;-1.70;99.90
42907;DHT22;28552;51.146;6.576;2023-02-28T02:46:35;-1.80;99.90
42907;DHT22;28552;51.146;6.576;2023-02-28T02:49:40;-1.80;99.90
42907;DHT22;28552;51.146;6.576;2023-02-28T02:52:47;-1.80;99.90
42907;DHT22;28552;51.146;6.576;2023-02-28T02:55:50;-1.90;99.90
42907;DHT22;28552;51.146;6.576;2023-02-28T02:58:59;-1.80;99.90
42907;DHT22;28552;51.146;6.576;2023-02-28T03:02:04;-1.90;99.90
42907;DHT22;28552;51.146;6.576;2023-02-28T03:05:17;-1.90;99.90
42907;DHT22;28552;51.146;6.576;2023-02-28T03:08:18;-1.90;99.90
42907;DHT22;28552;51.146;6.576;2023-02-28T03:11:19;-1.90;99.90
42907;DHT22;28552;51.146;6.576;2023-02-28T03:17:30;-1.90;99.90
42907;DHT22;28552;51.146;6.576;2023-02-28T03:20:54;-2.00;99.90
42907;DHT22;28552;51.146;6.576;2023-02-28T03:27:15;-2.00;99.90
42907;DHT22;28552;51.146;6.576;2023-02-28T03:30:27;-2.00;99.90
42907;DHT22;28552;51.146;6.576;2023-02-28T03:33:31;-2.00;99.90
42907;DHT22;28552;51.146;6.576;2023-02-28T03:36:37;-2.00;99.90
42907;DHT22;28552;51.146;6.576;2023-02-28T03:39:47;-2.00;99.90
42907;DHT22;28552;51.146;6.576;2023-02-28T03:42:52;-2.10;99.90
42907;DHT22;28552;51.146;6.576;2023-02-28T03:45:56;-2.10;99.90
42907;DHT22;28552;51.146;6.576;2023-02-28T03:49:11;-2.10;99.90
42907;DHT22;28552;51.146;6.576;2023-02-28T03:52:14;-2.10;99.90
42907;DHT22;28552;51.146;6.576;2023-02-28T03:55:15;-2.10;99.90
42907;DHT22;28552;51.146;6.576;2023-02-28T03:58:35;-2.10;99.90
42907;DHT22;28552;51.146;6.576;2023-02-28T04:01:40;-2.10;99.90
42907;DHT22;28552;51.146;6.576;2023-02-28T04:04:41;-2.10;99.90
42907;DHT22;28552;51.146;6.576;2023-02-28T04:07:48;-2.10;99.90
42907;DHT22;28552;51.146;6.576;2023-02-28T04:10:55;-2.20;99.90
42907;DHT22;28552;51.146;6.576;2023-02-28T04:13:57;-2.20;99.90
42907;DHT22;28552;51.146;6.576;2023-02-28T04:16:58;-2.20;99.90
42907;DHT22;28552;51.146;6.576;2023-02-28T04:19:58;-2.30;99.90
42907;DHT22;28552;51.146;6.576;2023-02-28T04:22:59;-2.30;99.90
42907;DHT22;28552;51.146;6.576;2023-02-28T04:25:59;-2.20;99.90
42907;DHT22;28552;51.146;6.576;2023-02-28T04:29:01;-2.20;99.90
42907;DHT22;28552;51.146;6.576;2023-02-28T04:32:03;-2.20;99.90
42907;DHT22;28552;51.146;6.576;2023-02-28T04:35:04;-2.20;99.90
42907;DHT22;28552;51.146;6.576;2023-02-28T04:38:04;-2.20;99.90
42907;DHT22;28552;51.146;6.576;2023-02-28T04:41:05;-2.30;99.90
42907;DHT22;28552;51.146;6.576;2023-02-28T04:44:06;-2.20;99.90
42907;DHT22;28552;51.146;6.576;2023-02-28T04:47:07;-2.30;99.90
42907;DHT22;28552;51.146;6.576;2023-02-28T04:50:08;-2.30;99.90
42907;DHT22;28552;51.146;6.576;2023-02-28T04:53:08;-2.30;99.90
42907;DHT22;28552;51.146;6.576;2023-02-28T04:56:14;-2.30;99.90
42907;DHT22;28552;51.146;6.576;2023-02-28T04:59:15;-2.30;99.90
42907;DHT22;28552;51.146;6.576;2023-02-28T05:02:16;-2.30;99.90
42907;DHT22;28552;51.146;6.576;2023-02-28T05:05:16;-2.40;99.90
42907;DHT22;28552;51.146;6.576;2023-02-28T05:08:18;-2.40;99.90
42907;DHT22;28552;51.146;6.576;2023-02-28T05:14:22;-2.50;99.90
42907;DHT22;28552;51.146;6.576;2023-02-28T05:17:22;-2.60;99.90
42907;DHT22;28552;51.146;6.576;2023-02-28T05:20:23;-2.60;99.90
42907;DHT22;28552;51.146;6.576;2023-02-28T05:23:23;-2.60;99.90
42907;DHT22;28552;51.146;6.576;2023-02-28T05:26:24;-2.70;99.90
42907;DHT22;28552;51.146;6.576;2023-02-28T05:29:25;-2.80;99.90
42907;DHT22;28552;51.146;6.576;2023-02-28T05:32:26;-2.90;99.90
42907;DHT22;28552;51.146;6.576;2023-02-28T05:35:26;-2.90;99.90
42907;DHT22;28552;51.146;6.576;2023-02-28T05:38:27;-2.90;99.90
42907;DHT22;28552;51.146;6.576;2023-02-28T05:41:27;-3.00;99.90
42907;DHT22;28552;51.146;6.576;2023-02-28T05:44:28;-2.90;99.90
42907;DHT22;28552;51.146;6.576;2023-02-28T05:47:28;-2.90;99.90
42907;DHT22;28552;51.146;6.576;2023-02-28T05:50:29;-2.90;99.90
42907;DHT22;28552;51.146;6.576;2023-02-28T05:53:31;-2.90;99.90
42907;DHT22;28552;51.146;6.576;2023-02-28T05:56:31;-2.90;99.90
42907;DHT22;28552;51.146;6.576;2023-02-28T05:59:34;-2.90;99.90
42907;DHT22;28552;51.146;6.576;2023-02-28T06:02:35;-2.90;99.90
42907;DHT22;28552;51.146;6.576;2023-02-28T06:05:35;-2.90;99.90
42907;DHT22;28552;51.146;6.576;2023-02-28T06:08:36;-2.80;99.90
42907;DHT22;28552;51.146;6.576;2023-02-28T06:11:37;-2.80;99.90
42907;DHT22;28552;51.146;6.576;2023-02-28T06:14:37;-2.80;99.90
42907;DHT22;28552;51.146;6.576;2023-02-28T06:17:38;-2.80;99.90
42907;DHT22;28552;51.146;6.576;2023-02-28T06:20:38;-2.80;99.90
42907;DHT22;28552;51.146;6.576;2023-02-28T06:23:39;-2.80;99.90
42907;DHT22;28552;51.146;6.576;2023-02-28T06:26:39;-2.80;99.90
42907;DHT22;28552;51.146;6.576;2023-02-28T06:29:40;-2.80;99.90
42907;DHT22;28552;51.146;6.576;2023-02-28T06:32:41;-2.80;99.90
42907;DHT22;28552;51.146;6.576;2023-02-28T06:35:44;-2.80;99.90
42907;DHT22;28552;51.146;6.576;2023-02-28T06:38:45;-2.80;99.90
42907;DHT22;28552;51.146;6.576;2023-02-28T06:41:45;-2.80;99.90
42907;DHT22;28552;51.146;6.576;2023-02-28T06:44:48;-2.70;99.90
42907;DHT22;28552;51.146;6.576;2023-02-28T06:47:48;-2.70;99.90
42907;DHT22;28552;51.146;6.576;2023-02-28T06:50:52;-2.70;99.90
42907;DHT22;28552;51.146;6.576;2023-02-28T06:53:53;-2.70;99.90
42907;DHT22;28552;51.146;6.576;2023-02-28T06:56:53;-2.70;99.90
42907;DHT22;28552;51.146;6.576;2023-02-28T06:59:55;-2.60;99.90
42907;DHT22;28552;51.146;6.576;2023-02-28T07:02:55;-2.60;99.90
42907;DHT22;28552;51.146;6.576;2023-02-28T07:05:56;-2.50;99.90
42907;DHT22;28552;51.146;6.576;2023-02-28T07:08:57;-2.50;99.90
42907;DHT22;28552;51.146;6.576;2023-02-28T07:11:57;-2.40;99.90
42907;DHT22;28552;51.146;6.576;2023-02-28T07:14:58;-2.30;99.90
42907;DHT22;28552;51.146;6.576;2023-02-28T07:17:58;-2.20;99.90
42907;DHT22;28552;51.146;6.576;2023-02-28T07:21:02;-2.00;99.90
42907;DHT22;28552;51.146;6.576;2023-02-28T07:24:02;-1.80;99.90
42907;DHT22;28552;51.146;6.576;2023-02-28T07:27:03;-1.60;99.90
42907;DHT22;28552;51.146;6.576;2023-02-28T07:30:04;-1.40;99.90
42907;DHT22;28552;51.146;6.576;2023-02-28T07:33:05;-1.20;99.90
42907;DHT22;28552;51.146;6.576;2023-02-28T07:36:10;-1.00;99.90
42907;DHT22;28552;51.146;6.576;2023-02-28T07:39:15;-0.80;99.90
42907;DHT22;28552;51.146;6.576;2023-02-28T07:42:15;-0.60;99.90
42907;DHT22;28552;51.146;6.576;2023-02-28T07:45:16;-0.40;99.90
42907;DHT22;28552;51.146;6.576;2023-02-28T07:48:17;-0.10;99.90
42907;DHT22;28552;51.146;6.576;2023-02-28T07:51:18;0.20;99.90
42907;DHT22;28552;51.146;6.576;2023-02-28T07:54:18;0.50;99.90
42907;DHT22;28552;51.146;6.576;2023-02-28T07:57:19;0.80;99.90
42907;DHT22;28552;51.146;6.576;2023-02-28T08:00:19;1.10;99.90
42907;DHT22;28552;51.146;6.576;2023-02-28T08:03:22;1.40;99.90
42907;DHT22;28552;51.146;6.576;2023-02-28T08:06:24;1.70;99.90
42907;DHT22;28552;51.146;6.576;2023-02-28T08:09:25;2.00;99.90
42907;DHT22;28552;51.146;6.576;2023-02-28T08:12:26;2.30;99.90
42907;DHT22;28552;51.146;6.576;2023-02-28T08:15:27;2.60;99.90
42907;DHT22;28552;51.146;6.576;2023-02-28T08:18:27;2.70;99.90
42907;DHT22;28552;51.146;6.576;2023-02-28T08:21:28;2.60;99.90
42907;DHT22;28552;51.146;6.576;2023-02-28T08:24:29;2.30;99.90
42907;DHT22;28552;51.146;6.576;2023-02-28T08:27:29;1.90;99.90
42907;DHT22;28552;51.146;6.576;2023-02-28T08:30:30;1.60;99.90
42907;DHT22;28552;51.146;6.576;2023-02-28T08:33:30;1.40;99.90
42907;DHT22;28552;51.146;6.576;2023-02-28T08:36:31;1.20;99.90
42907;DHT22;28552;51.146;6.576;2023-02-28T08:39:35;1.00;99.90
42907;DHT22;28552;51.146;6.576;2023-02-28T08:42:36;1.00;99.90
42907;DHT22;28552;51.146;6.576;2023-02-28T08:45:36;1.00;99.90
42907;DHT22;28552;51.146;6.576;2023-02-28T08:48:37;1.00;99.90
42907;DHT22;28552;51.146;6.576;2023-02-28T08:51:38;1.00;99.90
42907;DHT22;28552;51.146;6.576;2023-02-28T08:54:39;1.10;99.90
42907;DHT22;28552;51.146;6.576;2023-02-28T08:57:39;1.10;99.90
42907;DHT22;28552;51.146;6.576;2023-02-28T09:00:40;1.20;99.90
42907;DHT22;28552;51.146;6.576;2023-02-28T09:03:41;1.30;99.90
42907;DHT22;28552;51.146;6.576;2023-02-28T09:06:42;1.30;99.90
42907;DHT22;28552;51.146;6.576;2023-02-28T09:09:44;1.30;99.90
42907;DHT22;28552;51.146;6.576;2023-02-28T09:12:54;1.40;99.90
42907;DHT22;28552;51.146;6.576;2023-02-28T09:15:58;1.50;99.90
42907;DHT22;28552;51.146;6.576;2023-02-28T09:18:59;1.60;99.90
42907;DHT22;28552;51.146;6.576;2023-02-28T09:21:59;1.60;99.90
42907;DHT22;28552;51.146;6.576;2023-02-28T09:24:59;1.70;99.90
42907;DHT22;28552;51.146;6.576;2023-02-28T09:28:00;1.80;99.90
42907;DHT22;28552;51.146;6.576;2023-02-28T09:31:01;1.80;99.90
42907;DHT22;28552;51.146;6.576;2023-02-28T09:34:03;1.90;99.90
42907;DHT22;28552;51.146;6.576;2023-02-28T09:37:04;1.90;99.90
42907;DHT22;28552;51.146;6.576;2023-02-28T09:40:05;2.00;99.90
42907;DHT22;28552;51.146;6.576;2023-02-28T09:43:09;2.10;99.90
42907;DHT22;28552;51.146;6.576;2023-02-28T09:49:40;2.30;99.90
42907;DHT22;28552;51.146;6.576;2023-02-28T09:52:41;2.40;99.90
42907;DHT22;28552;51.146;6.576;2023-02-28T09:55:44;2.50;99.90
42907;DHT22;28552;51.146;6.576;2023-02-28T09:58:51;2.60;99.90
42907;DHT22;28552;51.146;6.576;2023-02-28T10:01:57;2.80;99.90
42907;DHT22;28552;51.146;6.576;2023-02-28T10:05:08;3.10;99.90
42907;DHT22;28552;51.146;6.576;2023-02-28T10:08:21;3.30;99.90
42907;DHT22;28552;51.146;6.576;2023-02-28T10:11:25;3.40;99.90
42907;DHT22;28552;51.146;6.576;2023-02-28T10:14:28;3.50;99.90
42907;DHT22;28552;51.146;6.576;2023-02-28T10:17:39;3.50;99.90
42907;DHT22;28552;51.146;6.576;2023-02-28T10:20:42;3.50;99.10
42907;DHT22;28552;51.146;6.576;2023-02-28T10:23:43;3.50;99.10
42907;DHT22;28552;51.146;6.576;2023-02-28T10:26:46;3.60;99.20
42907;DHT22;28552;51.146;6.576;2023-02-28T10:29:52;3.60;98.80
42907;DHT22;28552;51.146;6.576;2023-02-28T10:32:53;3.50;98.90
42907;DHT22;28552;51.146;6.576;2023-02-28T10:35:55;3.50;98.70
42907;DHT22;28552;51.146;6.576;2023-02-28T10:38:55;3.50;98.70
42907;DHT22;28552;51.146;6.576;2023-02-28T10:41:56;3.60;98.40
42907;DHT22;28552;51.146;6.576;2023-02-28T10:45:13;3.70;98.50
42907;DHT22;28552;51.146;6.576;2023-02-28T10:51:16;3.70;97.00
42907;DHT22;28552;51.146;6.576;2023-02-28T10:54:22;3.70;96.80
42907;DHT22;28552;51.146;6.576;2023-02-28T10:57:24;3.70;97.10
42907;DHT22;28552;51.146;6.576;2023-02-28T11:00:32;3.70;97.10
42907;DHT22;28552;51.146;6.576;2023-02-28T11:03:35;3.70;97.30
42907;DHT22;28552;51.146;6.576;2023-02-28T11:06:35;3.80;96.70
42907;DHT22;28552;51.146;6.576;2023-02-28T11:09:39;3.70;96.70
42907;DHT22;28552;51.146;6.576;2023-02-28T11:12:40;3.80;96.80
42907;DHT22;28552;51.146;6.576;2023-02-28T11:15:51;3.80;97.10
42907;DHT22;28552;51.146;6.576;2023-02-28T11:18:55;3.80;97.00
42907;DHT22;28552;51.146;6.576;2023-02-28T11:21:59;3.90;96.80
42907;DHT22;28552;51.146;6.576;2023-02-28T11:25:03;4.00;97.00
42907;DHT22;28552;51.146;6.576;2023-02-28T11:28:25;4.00;97.30
42907;DHT22;28552;51.146;6.576;2023-02-28T11:31:27;4.10;97.40
42907;DHT22;28552;51.146;6.576;2023-02-28T11:34:30;4.20;96.90
42907;DHT22;28552;51.146;6.576;2023-02-28T11:37:32;4.20;96.50
42907;DHT22;28552;51.146;6.576;2023-02-28T11:47:58;4.20;95.10
42907;DHT22;28552;51.146;6.576;2023-02-28T11:51:18;4.20;95.30
42907;DHT22;28552;51.146;6.576;2023-02-28T11:54:44;4.30;95.20
42907;DHT22;28552;51.146;6.576;2023-02-28T12:08:17;4.70;95.10
42907;DHT22;28552;51.146;6.576;2023-02-28T12:18:07;5.00;93.60
42907;DHT22;28552;51.146;6.576;2023-02-28T12:21:31;5.00;93.90
42907;DHT22;28552;51.146;6.576;2023-02-28T12:24:46;4.90;93.60
42907;DHT22;28552;51.146;6.576;2023-02-28T12:27:52;4.90;93.30
42907;DHT22;28552;51.146;6.576;2023-02-28T12:31:01;5.00;93.90
42907;DHT22;28552;51.146;6.576;2023-02-28T12:34:08;5.10;93.80
42907;DHT22;28552;51.146;6.576;2023-02-28T12:37:16;5.10;93.10
42907;DHT22;28552;51.146;6.576;2023-02-28T12:40:22;5.20;93.20
42907;DHT22;28552;51.146;6.576;2023-02-28T12:43:27;5.10;92.80
42907;DHT22;28552;51.146;6.576;2023-02-28T12:46:35;5.10;93.00
42907;DHT22;28552;51.146;6.576;2023-02-28T12:52:59;5.10;92.90
42907;DHT22;28552;51.146;6.576;2023-02-28T12:56:07;5.10;93.20
42907;DHT22;28552;51.146;6.576;2023-02-28T12:59:14;5.10;92.90
42907;DHT22;28552;51.146;6.576;2023-02-28T13:02:33;5.10;92.60
42907;DHT22;28552;51.146;6.576;2023-02-28T13:05:46;5.00;92.50
42907;DHT22;28552;51.146;6.576;2023-02-28T13:08:56;5.00;92.60
42907;DHT22;28552;51.146;6.576;2023-02-28T13:11:59;5.00;92.60
42907;DHT22;28552;51.146;6.576;2023-02-28T13:15:08;4.90;92.40
42907;DHT22;28552;51.146;6.576;2023-02-28T13:18:34;4.90;92.60
42907;DHT22;28552;51.146;6.576;2023-02-28T13:21:43;4.80;93.10
42907;DHT22;28552;51.146;6.576;2023-02-28T13:24:50;4.90;93.80
42907;DHT22;28552;51.146;6.576;2023-02-28T13:27:53;4.90;93.70
42907;DHT22;28552;51.146;6.576;2023-02-28T13:40:33;5.10;92.80
42907;DHT22;28552;51.146;6.576;2023-02-28T13:44:00;5.10;92.60
42907;DHT22;28552;51.146;6.576;2023-02-28T13:50:27;5.10;92.10
42907;DHT22;28552;51.146;6.576;2023-02-28T13:53:36;5.20;92.60
42907;DHT22;28552;51.146;6.576;2023-02-28T13:56:52;5.20;92.30
42907;DHT22;28552;51.146;6.576;2023-02-28T14:00:16;5.30;92.80
42907;DHT22;28552;51.146;6.576;2023-02-28T14:06:32;5.40;92.30
42907;DHT22;28552;51.146;6.576;2023-02-28T14:09:39;5.50;91.80
42907;DHT22;28552;51.146;6.576;2023-02-28T14:12:57;5.50;92.00
42907;DHT22;28552;51.146;6.576;2023-02-28T14:16:01;5.50;92.20
42907;DHT22;28552;51.146;6.576;2023-02-28T14:26:02;5.50;92.20
42907;DHT22;28552;51.146;6.576;2023-02-28T14:32:50;5.60;92.00
42907;DHT22;28552;51.146;6.576;2023-02-28T14:39:07;5.50;92.10
42907;DHT22;28552;51.146;6.576;2023-02-28T14:45:42;5.60;91.10
42907;DHT22;28552;51.146;6.576;2023-02-28T14:48:45;5.60;91.30
42907;DHT22;28552;51.146;6.576;2023-02-28T14:51:47;5.60;91.60
42907;DHT22;28552;51.146;6.576;2023-02-28T14:54:54;5.60;91.20
42907;DHT22;28552;51.146;6.576;2023-02-28T14:58:00;5.60;91.40
42907;DHT22;28552;51.146;6.576;2023-02-28T15:01:04;5.60;91.90
42907;DHT22;28552;51.146;6.576;2023-02-28T15:04:11;5.60;92.00
42907;DHT22;28552;51.146;6.576;2023-02-28T15:07:16;5.70;92.20
42907;DHT22;28552;51.146;6.576;2023-02-28T15:10:20;5.70;92.00
42907;DHT22;28552;51.146;6.576;2023-02-28T15:13:23;5.70;91.60
42907;DHT22;28552;51.146;6.576;2023-02-28T15:16:32;5.70;91.70
42907;DHT22;28552;51.146;6.576;2023-02-28T15:19:36;5.70;91.80
42907;DHT22;28552;51.146;6.576;2023-02-28T15:22:38;5.70;91.30
42907;DHT22;28552;51.146;6.576;2023-02-28T15:25:40;5.60;91.70
42907;DHT22;28552;51.146;6.576;2023-02-28T15:28:41;5.70;92.00
42907;DHT22;28552;51.146;6.576;2023-02-28T15:31:50;5.70;92.20
42907;DHT22;28552;51.146;6.576;2023-02-28T15:34:51;5.70;92.50
42907;DHT22;28552;51.146;6.576;2023-02-28T15:37:54;5.60;92.70
42907;DHT22;28552;51.146;6.576;2023-02-28T15:40:57;5.60;93.20
42907;DHT22;28552;51.146;6.576;2023-02-28T15:44:14;5.60;92.80
42907;DHT22;28552;51.146;6.576;2023-02-28T15:47:22;5.60;92.50
42907;DHT22;28552;51.146;6.576;2023-02-28T15:50:23;5.60;92.50
42907;DHT22;28552;51.146;6.576;2023-02-28T15:53:30;5.50;92.70
42907;DHT22;28552;51.146;6.576;2023-02-28T15:56:33;5.50;92.70
42907;DHT22;28552;51.146;6.576;2023-02-28T15:59:36;5.40;93.10
42907;DHT22;28552;51.146;6.576;2023-02-28T16:02:38;5.40;93.30
42907;DHT22;28552;51.146;6.576;2023-02-28T16:05:39;5.40;93.80
42907;DHT22;28552;51.146;6.576;2023-02-28T16:08:39;5.30;94.10
42907;DHT22;28552;51.146;6.576;2023-02-28T16:11:43;5.20;93.70
42907;DHT22;28552;51.146;6.576;2023-02-28T16:14:44;5.20;94.10
42907;DHT22;28552;51.146;6.576;2023-02-28T16:17:45;5.10;94.70
42907;DHT22;28552;51.146;6.576;2023-02-28T16:20:46;5.10;94.70
42907;DHT22;28552;51.146;6.576;2023-02-28T16:23:47;5.00;94.80
42907;DHT22;28552;51.146;6.576;2023-02-28T16:26:50;4.90;94.90
42907;DHT22;28552;51.146;6.576;2023-02-28T16:29:52;4.90;95.20
42907;DHT22;28552;51.146;6.576;2023-02-28T16:32:55;4.80;95.30
42907;DHT22;28552;51.146;6.576;2023-02-28T16:35:56;4.70;95.10
42907;DHT22;28552;51.146;6.576;2023-02-28T16:38:56;4.60;95.50
42907;DHT22;28552;51.146;6.576;2023-02-28T16:41:57;4.50;95.90
42907;DHT22;28552;51.146;6.576;2023-02-28T16:44:57;4.40;96.30
42907;DHT22;28552;51.146;6.576;2023-02-28T16:47:58;4.30;96.80
42907;DHT22;28552;51.146;6.576;2023-02-28T16:50:59;4.20;97.00
42907;DHT22;28552;51.146;6.576;2023-02-28T16:53:59;4.10;97.30
42907;DHT22;28552;51.146;6.576;2023-02-28T16:57:00;4.00;97.90
42907;DHT22;28552;51.146;6.576;2023-02-28T17:00:01;3.90;98.60
42907;DHT22;28552;51.146;6.576;2023-02-28T17:03:01;3.70;99.30
42907;DHT22;28552;51.146;6.576;2023-02-28T17:06:04;3.60;99.70
42907;DHT22;28552;51.146;6.576;2023-02-28T17:09:04;3.50;99.90
42907;DHT22;28552;51.146;6.576;2023-02-28T17:12:05;3.40;99.90
42907;DHT22;28552;51.146;6.576;2023-02-28T17:15:07;3.20;99.90
42907;DHT22;28552;51.146;6.576;2023-02-28T17:18:14;3.10;99.90
42907;DHT22;28552;51.146;6.576;2023-02-28T17:21:16;3.00;99.90
42907;DHT22;28552;51.146;6.576;2023-02-28T17:24:17;2.90;99.90
42907;DHT22;28552;51.146;6.576;2023-02-28T17:27:18;2.90;99.90
42907;DHT22;28552;51.146;6.576;2023-02-28T17:30:21;2.90;99.90
42907;DHT22;28552;51.146;6.576;2023-02-28T17:33:22;2.80;99.90
42907;DHT22;28552;51.146;6.576;2023-02-28T17:36:25;2.80;99.90
42907;DHT22;28552;51.146;6.576;2023-02-28T17:39:26;2.70;99.90
42907;DHT22;28552;51.146;6.576;2023-02-28T17:42:27;2.60;99.90
42907;DHT22;28552;51.146;6.576;2023-02-28T17:45:27;2.60;99.90
42907;DHT22;28552;51.146;6.576;2023-02-28T17:48:28;2.50;99.90
42907;DHT22;28552;51.146;6.576;2023-02-28T17:51:29;2.40;99.90
42907;DHT22;28552;51.146;6.576;2023-02-28T17:54:29;2.40;99.90
42907;DHT22;28552;51.146;6.576;2023-02-28T17:57:30;2.20;99.90
42907;DHT22;28552;51.146;6.576;2023-02-28T18:00:31;2.20;99.90
42907;DHT22;28552;51.146;6.576;2023-02-28T18:03:33;2.10;99.90
42907;DHT22;28552;51.146;6.576;2023-02-28T18:06:38;2.00;99.90
42907;DHT22;28552;51.146;6.576;2023-02-28T18:09:46;1.90;99.90
42907;DHT22;28552;51.146;6.576;2023-02-28T18:12:48;1.80;99.90
42907;DHT22;28552;51.146;6.576;2023-02-28T18:15:48;1.70;99.90
42907;DHT22;28552;51.146;6.576;2023-02-28T18:18:49;1.60;99.90
42907;DHT22;28552;51.146;6.576;2023-02-28T18:21:52;1.40;99.90
42907;DHT22;28552;51.146;6.576;2023-02-28T18:24:53;1.40;99.90
42907;DHT22;28552;51.146;6.576;2023-02-28T18:27:53;1.30;99.90
42907;DHT22;28552;51.146;6.576;2023-02-28T18:30:57;1.20;99.90
42907;DHT22;28552;51.146;6.576;2023-02-28T18:33:58;1.20;99.90
42907;DHT22;28552;51.146;6.576;2023-02-28T18:36:59;1.20;99.90
42907;DHT22;28552;51.146;6.576;2023-02-28T18:40:00;1.20;99.90
42907;DHT22;28552;51.146;6.576;2023-02-28T18:43:01;1.20;99.90
42907;DHT22;28552;51.146;6.576;2023-02-28T18:46:04;1.10;99.90
42907;DHT22;28552;51.146;6.576;2023-02-28T18:49:05;1.10;99.90
42907;DHT22;28552;51.146;6.576;2023-02-28T18:52:05;1.00;99.90
42907;DHT22;28552;51.146;6.576;2023-02-28T18:55:06;1.10;99.90
42907;DHT22;28552;51.146;6.576;2023-02-28T18:58:08;1.00;99.90
42907;DHT22;28552;51.146;6.576;2023-02-28T19:01:24;0.90;99.90
42907;DHT22;28552;51.146;6.576;2023-02-28T19:04:29;0.90;99.90
42907;DHT22;28552;51.146;6.576;2023-02-28T19:07:29;0.90;99.90
42907;DHT22;28552;51.146;6.576;2023-02-28T19:10:30;0.90;99.90
42907;DHT22;28552;51.146;6.576;2023-02-28T19:13:30;0.80;99.90
42907;DHT22;28552;51.146;6.576;2023-02-28T19:16:31;0.80;99.90
42907;DHT22;28552;51.146;6.576;2023-02-28T19:19:32;0.80;99.90
42907;DHT22;28552;51.146;6.576;2023-02-28T19:22:32;0.80;99.90
42907;DHT22;28552;51.146;6.576;2023-02-28T19:25:33;0.80;99.90
42907;DHT22;28552;51.146;6.576;2023-02-28T19:28:33;0.80;99.90
42907;DHT22;28552;51.146;6.576;2023-02-28T19:31:34;0.70;99.90
42907;DHT22;28552;51.146;6.576;2023-02-28T19:34:34;0.70;99.90
42907;DHT22;28552;51.146;6.576;2023-02-28T19:37:37;0.70;99.90
42907;DHT22;28552;51.146;6.576;2023-02-28T19:40:38;0.70;99.90
42907;DHT22;28552;51.146;6.576;2023-02-28T19:43:39;0.60;99.90
42907;DHT22;28552;51.146;6.576;2023-02-28T19:46:40;0.50;99.90
42907;DHT22;28552;51.146;6.576;2023-02-28T19:49:40;0.50;99.90
42907;DHT22;28552;51.146;6.576;2023-02-28T19:52:41;0.40;99.90
42907;DHT22;28552;51.146;6.576;2023-02-28T19:55:42;0.40;99.90
42907;DHT22;28552;51.146;6.576;2023-02-28T19:58:46;0.40;99.90
42907;DHT22;28552;51.146;6.576;2023-02-28T20:01:47;0.30;99.90
42907;DHT22;28552;51.146;6.576;2023-02-28T20:04:49;0.30;99.90
42907;DHT22;28552;51.146;6.576;2023-02-28T20:07:49;0.30;99.90
42907;DHT22;28552;51.146;6.576;2023-02-28T20:10:50;0.30;99.90
42907;DHT22;28552;51.146;6.576;2023-02-28T20:13:52;0.30;99.90
42907;DHT22;28552;51.146;6.576;2023-02-28T20:16:53;0.30;99.90
42907;DHT22;28552;51.146;6.576;2023-02-28T20:19:53;0.30;99.90
42907;DHT22;28552;51.146;6.576;2023-02-28T20:22:54;0.30;99.90
42907;DHT22;28552;51.146;6.576;2023-02-28T20:25:58;0.30;99.90
42907;DHT22;28552;51.146;6.576;2023-02-28T20:28:59;0.20;99.90
42907;DHT22;28552;51.146;6.576;2023-02-28T20:32:00;0.20;99.90
42907;DHT22;28552;51.146;6.576;2023-02-28T20:35:03;0.20;99.90
42907;DHT22;28552;51.146;6.576;2023-02-28T20:38:04;0.20;99.90
42907;DHT22;28552;51.146;6.576;2023-02-28T20:41:12;0.20;99.90
42907;DHT22;28552;51.146;6.576;2023-02-28T20:44:13;0.20;99.90
42907;DHT22;28552;51.146;6.576;2023-02-28T20:47:13;0.20;99.90
42907;DHT22;28552;51.146;6.576;2023-02-28T20:50:14;0.20;99.90
42907;DHT22;28552;51.146;6.576;2023-02-28T20:53:17;0.20;99.90
42907;DHT22;28552;51.146;6.576;2023-02-28T20:56:19;0.20;99.90
42907;DHT22;28552;51.146;6.576;2023-02-28T20:59:20;0.20;99.90
42907;DHT22;28552;51.146;6.576;2023-02-28T21:02:21;0.20;99.90
42907;DHT22;28552;51.146;6.576;2023-02-28T21:05:22;0.20;99.90
42907;DHT22;28552;51.146;6.576;2023-02-28T21:08:23;0.20;99.90